sensor_id;sensor_type;location;lat;lon;timestamp;P1;durP1;ratioP1;P2;durP2;ratioP2
39948;SDS011;29070;48.102;-1.652;2023-02-28T00:03:07;6.80;;;3.10;;
39948;SDS011;29070;48.102;-1.652;2023-02-28T00:08:08;12.57;;;4.20;;
39948;SDS011;29070;48.102;-1.652;2023-02-28T00:13:09;12.07;;;3.33;;
39948;SDS011;29070;48.102;-1.652;2023-02-28T00:18:09;9.20;;;3.58;;
39948;SDS011;29070;48.102;-1.652;2023-02-28T00:23:09;13.13;;;3.97;;
39948;SDS011;29070;48.102;-1.652;2023-02-28T00:28:10;10.37;;;4.13;;
39948;SDS011;29070;48.102;-1.652;2023-02-28T00:33:10;8.20;;;3.77;;
39948;SDS011;29070;48.102;-1.652;2023-02-28T00:38:10;7.35;;;3.45;;
39948;SDS011;29070;48.102;-1.652;2023-02-28T00:43:11;10.17;;;3.53;;
39948;SDS011;29070;48.102;-1.652;2023-02-28T00:48:11;5.75;;;3.33;;
39948;SDS011;29070;48.102;-1.652;2023-02-28T00:53:12;11.63;;;3.73;;
39948;SDS011;29070;48.102;-1.652;2023-02-28T00:58:12;6.80;;;3.10;;
39948;SDS011;29070;48.102;-1.652;2023-02-28T01:03:12;5.37;;;3.40;;
39948;SDS011;29070;48.102;-1.652;2023-02-28T01:08:13;9.60;;;2.87;;
39948;SDS011;29070;48.102;-1.652;2023-02-28T01:13:14;7.40;;;2.90;;
39948;SDS011;29070;48.102;-1.652;2023-02-28T01:18:14;6.40;;;3.00;;
39948;SDS011;29070;48.102;-1.652;2023-02-28T01:23:15;10.43;;;3.50;;
39948;SDS011;29070;48.102;-1.652;2023-02-28T01:28:15;7.50;;;3.03;;
39948;SDS011;29070;48.102;-1.652;2023-02-28T01:33:16;8.20;;;2.95;;
39948;SDS011;29070;48.102;-1.652;2023-02-28T01:38:16;9.65;;;3.13;;
39948;SDS011;29070;48.102;-1.652;2023-02-28T01:43:21;9.18;;;2.95;;
39948;SDS011;29070;48.102;-1.652;2023-02-28T01:48:26;8.52;;;2.97;;
39948;SDS011;29070;48.102;-1.652;2023-02-28T01:53:36;7.45;;;3.08;;
39948;SDS011;29070;48.102;-1.652;2023-02-28T01:58:41;7.68;;;3.00;;
39948;SDS011;29070;48.102;-1.652;2023-02-28T02:03:41;7.27;;;3.17;;
39948;SDS011;29070;48.102;-1.652;2023-02-28T02:08:42;8.20;;;2.93;;
39948;SDS011;29070;48.102;-1.652;2023-02-28T02:34:55;8.60;;;3.35;;
39948;SDS011;29070;48.102;-1.652;2023-02-28T02:40:04;8.95;;;3.25;;
39948;SDS011;29070;48.102;-1.652;2023-02-28T02:45:56;8.82;;;3.90;;
39948;SDS011;29070;48.102;-1.652;2023-02-28T02:50:55;7.15;;;3.35;;
39948;SDS011;29070;48.102;-1.652;2023-02-28T02:55:58;6.60;;;3.22;;
39948;SDS011;29070;48.102;-1.652;2023-02-28T03:01:02;8.55;;;3.58;;
39948;SDS011;29070;48.102;-1.652;2023-02-28T03:06:04;8.68;;;3.63;;
39948;SDS011;29070;48.102;-1.652;2023-02-28T03:11:06;8.32;;;3.45;;
39948;SDS011;29070;48.102;-1.652;2023-02-28T03:27:29;9.75;;;3.92;;
39948;SDS011;29070;48.102;-1.652;2023-02-28T03:32:35;8.73;;;4.63;;
39948;SDS011;29070;48.102;-1.652;2023-02-28T03:37:41;7.25;;;3.08;;
39948;SDS011;29070;48.102;-1.652;2023-02-28T03:42:45;8.63;;;4.35;;
39948;SDS011;29070;48.102;-1.652;2023-02-28T03:48:05;7.05;;;4.47;;
39948;SDS011;29070;48.102;-1.652;2023-02-28T03:53:28;8.45;;;3.50;;
39948;SDS011;29070;48.102;-1.652;2023-02-28T04:04:05;8.30;;;3.72;;
39948;SDS011;29070;48.102;-1.652;2023-02-28T04:09:06;10.52;;;3.90;;
39948;SDS011;29070;48.102;-1.652;2023-02-28T04:14:09;7.35;;;4.30;;
39948;SDS011;29070;48.102;-1.652;2023-02-28T04:19:11;7.35;;;4.20;;
39948;SDS011;29070;48.102;-1.652;2023-02-28T04:24:13;7.28;;;3.58;;
39948;SDS011;29070;48.102;-1.652;2023-02-28T04:29:19;10.70;;;3.80;;
39948;SDS011;29070;48.102;-1.652;2023-02-28T04:34:27;7.10;;;3.88;;
39948;SDS011;29070;48.102;-1.652;2023-02-28T04:39:34;7.38;;;4.10;;
39948;SDS011;29070;48.102;-1.652;2023-02-28T04:44:35;10.38;;;4.45;;
39948;SDS011;29070;48.102;-1.652;2023-02-28T04:49:36;12.03;;;4.80;;
39948;SDS011;29070;48.102;-1.652;2023-02-28T04:54:36;6.27;;;4.17;;
39948;SDS011;29070;48.102;-1.652;2023-02-28T04:59:38;7.43;;;4.47;;
39948;SDS011;29070;48.102;-1.652;2023-02-28T05:04:39;9.77;;;4.63;;
39948;SDS011;29070;48.102;-1.652;2023-02-28T05:09:39;9.75;;;4.78;;
39948;SDS011;29070;48.102;-1.652;2023-02-28T05:14:40;8.77;;;4.93;;
39948;SDS011;29070;48.102;-1.652;2023-02-28T05:19:40;11.37;;;5.03;;
39948;SDS011;29070;48.102;-1.652;2023-02-28T05:24:40;7.82;;;4.25;;
39948;SDS011;29070;48.102;-1.652;2023-02-28T05:29:42;10.82;;;5.03;;
39948;SDS011;29070;48.102;-1.652;2023-02-28T05:34:43;10.85;;;5.60;;
39948;SDS011;29070;48.102;-1.652;2023-02-28T05:39:43;12.10;;;5.68;;
39948;SDS011;29070;48.102;-1.652;2023-02-28T05:44:44;11.00;;;5.00;;
39948;SDS011;29070;48.102;-1.652;2023-02-28T05:49:44;9.00;;;5.03;;
39948;SDS011;29070;48.102;-1.652;2023-02-28T05:54:45;8.80;;;5.33;;
39948;SDS011;29070;48.102;-1.652;2023-02-28T05:59:46;10.60;;;4.88;;
39948;SDS011;29070;48.102;-1.652;2023-02-28T06:04:46;12.13;;;5.87;;
39948;SDS011;29070;48.102;-1.652;2023-02-28T06:09:47;11.02;;;5.50;;
39948;SDS011;29070;48.102;-1.652;2023-02-28T06:14:47;12.47;;;5.27;;
39948;SDS011;29070;48.102;-1.652;2023-02-28T06:19:47;12.35;;;5.93;;
39948;SDS011;29070;48.102;-1.652;2023-02-28T06:24:48;15.70;;;6.78;;
39948;SDS011;29070;48.102;-1.652;2023-02-28T06:29:49;12.70;;;6.00;;
39948;SDS011;29070;48.102;-1.652;2023-02-28T06:34:53;16.10;;;6.05;;
39948;SDS011;29070;48.102;-1.652;2023-02-28T06:39:54;11.55;;;6.72;;
39948;SDS011;29070;48.102;-1.652;2023-02-28T06:44:56;15.82;;;6.72;;
39948;SDS011;29070;48.102;-1.652;2023-02-28T06:49:56;15.07;;;6.63;;
39948;SDS011;29070;48.102;-1.652;2023-02-28T06:54:58;15.90;;;7.05;;
39948;SDS011;29070;48.102;-1.652;2023-02-28T07:00:03;17.05;;;7.05;;
39948;SDS011;29070;48.102;-1.652;2023-02-28T07:05:07;15.30;;;7.00;;
39948;SDS011;29070;48.102;-1.652;2023-02-28T07:10:08;17.33;;;7.13;;
39948;SDS011;29070;48.102;-1.652;2023-02-28T07:15:10;15.50;;;6.85;;
39948;SDS011;29070;48.102;-1.652;2023-02-28T07:20:11;12.05;;;6.32;;
39948;SDS011;29070;48.102;-1.652;2023-02-28T07:25:12;17.80;;;6.72;;
39948;SDS011;29070;48.102;-1.652;2023-02-28T07:30:12;17.70;;;8.50;;
39948;SDS011;29070;48.102;-1.652;2023-02-28T07:35:13;14.43;;;7.18;;
39948;SDS011;29070;48.102;-1.652;2023-02-28T07:40:15;16.98;;;7.88;;
39948;SDS011;29070;48.102;-1.652;2023-02-28T07:45:15;21.05;;;8.60;;
39948;SDS011;29070;48.102;-1.652;2023-02-28T07:50:17;17.65;;;7.65;;
39948;SDS011;29070;48.102;-1.652;2023-02-28T07:55:17;18.20;;;8.05;;
39948;SDS011;29070;48.102;-1.652;2023-02-28T08:00:18;21.75;;;8.48;;
39948;SDS011;29070;48.102;-1.652;2023-02-28T08:05:18;17.13;;;8.93;;
39948;SDS011;29070;48.102;-1.652;2023-02-28T08:10:19;18.33;;;8.90;;
39948;SDS011;29070;48.102;-1.652;2023-02-28T08:15:19;15.10;;;8.27;;
39948;SDS011;29070;48.102;-1.652;2023-02-28T08:20:21;17.35;;;7.90;;
39948;SDS011;29070;48.102;-1.652;2023-02-28T08:25:22;14.18;;;7.63;;
39948;SDS011;29070;48.102;-1.652;2023-02-28T08:30:23;21.48;;;7.95;;
39948;SDS011;29070;48.102;-1.652;2023-02-28T08:35:23;20.47;;;9.07;;
39948;SDS011;29070;48.102;-1.652;2023-02-28T08:40:24;17.30;;;8.50;;
39948;SDS011;29070;48.102;-1.652;2023-02-28T08:45:24;14.15;;;7.85;;
39948;SDS011;29070;48.102;-1.652;2023-02-28T08:50:25;19.25;;;8.23;;
39948;SDS011;29070;48.102;-1.652;2023-02-28T08:55:25;19.75;;;7.78;;
39948;SDS011;29070;48.102;-1.652;2023-02-28T09:00:25;18.43;;;7.77;;
39948;SDS011;29070;48.102;-1.652;2023-02-28T09:05:26;18.00;;;7.78;;
39948;SDS011;29070;48.102;-1.652;2023-02-28T09:10:26;17.30;;;7.13;;
39948;SDS011;29070;48.102;-1.652;2023-02-28T09:15:26;15.80;;;7.37;;
39948;SDS011;29070;48.102;-1.652;2023-02-28T09:20:27;14.80;;;6.57;;
39948;SDS011;29070;48.102;-1.652;2023-02-28T09:25:27;20.03;;;7.30;;
39948;SDS011;29070;48.102;-1.652;2023-02-28T09:30:28;12.67;;;5.90;;
39948;SDS011;29070;48.102;-1.652;2023-02-28T09:35:28;11.95;;;5.78;;
39948;SDS011;29070;48.102;-1.652;2023-02-28T09:40:30;11.77;;;5.10;;
39948;SDS011;29070;48.102;-1.652;2023-02-28T09:45:35;11.02;;;5.30;;
39948;SDS011;29070;48.102;-1.652;2023-02-28T09:50:40;12.27;;;5.63;;
39948;SDS011;29070;48.102;-1.652;2023-02-28T09:55:47;14.68;;;5.75;;
39948;SDS011;29070;48.102;-1.652;2023-02-28T10:00:55;12.05;;;5.13;;
39948;SDS011;29070;48.102;-1.652;2023-02-28T10:06:22;10.93;;;4.20;;
39948;SDS011;29070;48.102;-1.652;2023-02-28T10:11:28;9.77;;;3.42;;
39948;SDS011;29070;48.102;-1.652;2023-02-28T10:16:45;8.77;;;3.53;;
39948;SDS011;29070;48.102;-1.652;2023-02-28T10:21:57;5.20;;;2.92;;
39948;SDS011;29070;48.102;-1.652;2023-02-28T10:27:12;6.43;;;3.55;;
39948;SDS011;29070;48.102;-1.652;2023-02-28T10:32:21;8.20;;;4.45;;
39948;SDS011;29070;48.102;-1.652;2023-02-28T10:37:24;10.38;;;5.40;;
39948;SDS011;29070;48.102;-1.652;2023-02-28T10:42:25;18.05;;;7.25;;
39948;SDS011;29070;48.102;-1.652;2023-02-28T10:47:27;7.55;;;4.03;;
39948;SDS011;29070;48.102;-1.652;2023-02-28T10:52:38;11.60;;;5.20;;
39948;SDS011;29070;48.102;-1.652;2023-02-28T10:57:39;8.20;;;4.32;;
39948;SDS011;29070;48.102;-1.652;2023-02-28T11:02:40;6.83;;;3.00;;
39948;SDS011;29070;48.102;-1.652;2023-02-28T11:07:44;8.02;;;3.38;;
39948;SDS011;29070;48.102;-1.652;2023-02-28T11:12:56;3.70;;;2.20;;
39948;SDS011;29070;48.102;-1.652;2023-02-28T11:23:13;7.85;;;2.97;;
39948;SDS011;29070;48.102;-1.652;2023-02-28T11:28:28;3.60;;;2.33;;
39948;SDS011;29070;48.102;-1.652;2023-02-28T11:38:42;3.67;;;1.95;;
39948;SDS011;29070;48.102;-1.652;2023-02-28T11:59:51;7.68;;;3.22;;
39948;SDS011;29070;48.102;-1.652;2023-02-28T12:05:23;6.30;;;2.50;;
39948;SDS011;29070;48.102;-1.652;2023-02-28T12:32:03;7.28;;;3.22;;
39948;SDS011;29070;48.102;-1.652;2023-02-28T12:37:17;6.07;;;3.30;;
39948;SDS011;29070;48.102;-1.652;2023-02-28T12:42:30;8.98;;;2.92;;
39948;SDS011;29070;48.102;-1.652;2023-02-28T12:47:33;7.38;;;2.60;;
39948;SDS011;29070;48.102;-1.652;2023-02-28T13:09:01;4.35;;;2.30;;
39948;SDS011;29070;48.102;-1.652;2023-02-28T13:14:05;15.27;;;3.10;;
39948;SDS011;29070;48.102;-1.652;2023-02-28T13:19:17;3.53;;;1.80;;
39948;SDS011;29070;48.102;-1.652;2023-02-28T13:24:40;5.53;;;2.35;;
39948;SDS011;29070;48.102;-1.652;2023-02-28T13:29:49;3.60;;;1.67;;
39948;SDS011;29070;48.102;-1.652;2023-02-28T13:50:22;5.75;;;1.95;;
39948;SDS011;29070;48.102;-1.652;2023-02-28T13:55:31;2.88;;;2.15;;
39948;SDS011;29070;48.102;-1.652;2023-02-28T14:11:36;4.20;;;2.55;;
39948;SDS011;29070;48.102;-1.652;2023-02-28T14:16:44;2.65;;;1.90;;
39948;SDS011;29070;48.102;-1.652;2023-02-28T14:21:50;6.95;;;2.70;;
39948;SDS011;29070;48.102;-1.652;2023-02-28T14:27:14;6.20;;;3.00;;
39948;SDS011;29070;48.102;-1.652;2023-02-28T14:38:17;5.00;;;2.50;;
39948;SDS011;29070;48.102;-1.652;2023-02-28T14:43:22;5.55;;;2.50;;
39948;SDS011;29070;48.102;-1.652;2023-02-28T14:48:27;4.65;;;2.72;;
39948;SDS011;29070;48.102;-1.652;2023-02-28T14:53:29;6.13;;;2.80;;
39948;SDS011;29070;48.102;-1.652;2023-02-28T14:58:35;9.73;;;5.50;;
39948;SDS011;29070;48.102;-1.652;2023-02-28T15:03:36;20.30;;;6.03;;
39948;SDS011;29070;48.102;-1.652;2023-02-28T15:08:38;11.50;;;4.90;;
39948;SDS011;29070;48.102;-1.652;2023-02-28T15:13:40;8.48;;;3.70;;
39948;SDS011;29070;48.102;-1.652;2023-02-28T15:18:45;12.27;;;4.70;;
39948;SDS011;29070;48.102;-1.652;2023-02-28T15:23:53;10.37;;;4.77;;
39948;SDS011;29070;48.102;-1.652;2023-02-28T15:29:16;13.52;;;7.45;;
39948;SDS011;29070;48.102;-1.652;2023-02-28T15:34:42;12.10;;;6.18;;
39948;SDS011;29070;48.102;-1.652;2023-02-28T15:39:42;12.68;;;6.57;;
39948;SDS011;29070;48.102;-1.652;2023-02-28T15:44:44;8.80;;;4.85;;
39948;SDS011;29070;48.102;-1.652;2023-02-28T15:49:45;9.53;;;5.00;;
39948;SDS011;29070;48.102;-1.652;2023-02-28T15:54:54;11.57;;;5.45;;
39948;SDS011;29070;48.102;-1.652;2023-02-28T15:59:59;8.70;;;4.97;;
39948;SDS011;29070;48.102;-1.652;2023-02-28T16:10:08;12.88;;;6.28;;
39948;SDS011;29070;48.102;-1.652;2023-02-28T16:15:18;8.45;;;6.05;;
39948;SDS011;29070;48.102;-1.652;2023-02-28T16:20:23;10.80;;;5.50;;
39948;SDS011;29070;48.102;-1.652;2023-02-28T16:25:44;11.45;;;6.90;;
39948;SDS011;29070;48.102;-1.652;2023-02-28T16:30:46;14.55;;;7.55;;
39948;SDS011;29070;48.102;-1.652;2023-02-28T16:35:46;24.27;;;12.85;;
39948;SDS011;29070;48.102;-1.652;2023-02-28T16:40:47;16.20;;;8.30;;
39948;SDS011;29070;48.102;-1.652;2023-02-28T16:45:54;14.48;;;7.50;;
39948;SDS011;29070;48.102;-1.652;2023-02-28T16:50:56;18.13;;;8.68;;
39948;SDS011;29070;48.102;-1.652;2023-02-28T16:55:57;22.35;;;10.85;;
39948;SDS011;29070;48.102;-1.652;2023-02-28T17:00:57;17.92;;;9.95;;
39948;SDS011;29070;48.102;-1.652;2023-02-28T17:05:58;19.02;;;9.40;;
39948;SDS011;29070;48.102;-1.652;2023-02-28T17:10:59;14.87;;;9.23;;
39948;SDS011;29070;48.102;-1.652;2023-02-28T17:16:00;15.82;;;7.88;;
39948;SDS011;29070;48.102;-1.652;2023-02-28T17:21:02;22.75;;;11.57;;
39948;SDS011;29070;48.102;-1.652;2023-02-28T17:26:02;13.50;;;7.97;;
39948;SDS011;29070;48.102;-1.652;2023-02-28T17:31:05;16.45;;;9.07;;
39948;SDS011;29070;48.102;-1.652;2023-02-28T17:36:06;21.52;;;9.98;;
39948;SDS011;29070;48.102;-1.652;2023-02-28T17:41:07;32.00;;;14.02;;
39948;SDS011;29070;48.102;-1.652;2023-02-28T17:46:17;24.08;;;12.20;;
39948;SDS011;29070;48.102;-1.652;2023-02-28T17:51:22;21.13;;;10.75;;
39948;SDS011;29070;48.102;-1.652;2023-02-28T17:56:24;19.95;;;11.45;;
39948;SDS011;29070;48.102;-1.652;2023-02-28T18:01:25;23.42;;;11.45;;
39948;SDS011;29070;48.102;-1.652;2023-02-28T18:06:39;24.40;;;11.38;;
39948;SDS011;29070;48.102;-1.652;2023-02-28T18:11:50;21.38;;;11.55;;
39948;SDS011;29070;48.102;-1.652;2023-02-28T18:16:52;20.67;;;9.55;;
39948;SDS011;29070;48.102;-1.652;2023-02-28T18:21:54;17.10;;;8.20;;
39948;SDS011;29070;48.102;-1.652;2023-02-28T18:26:55;13.93;;;7.27;;
39948;SDS011;29070;48.102;-1.652;2023-02-28T18:31:55;18.03;;;9.43;;
39948;SDS011;29070;48.102;-1.652;2023-02-28T18:36:56;22.52;;;11.25;;
39948;SDS011;29070;48.102;-1.652;2023-02-28T18:41:57;18.95;;;8.85;;
39948;SDS011;29070;48.102;-1.652;2023-02-28T18:46:57;18.23;;;8.80;;
39948;SDS011;29070;48.102;-1.652;2023-02-28T18:51:57;15.07;;;7.43;;
39948;SDS011;29070;48.102;-1.652;2023-02-28T18:56:58;20.38;;;9.70;;
39948;SDS011;29070;48.102;-1.652;2023-02-28T19:01:58;20.60;;;9.87;;
39948;SDS011;29070;48.102;-1.652;2023-02-28T19:06:58;16.93;;;9.30;;
39948;SDS011;29070;48.102;-1.652;2023-02-28T19:11:59;18.33;;;9.60;;
39948;SDS011;29070;48.102;-1.652;2023-02-28T19:16:59;15.03;;;7.90;;
39948;SDS011;29070;48.102;-1.652;2023-02-28T19:22:00;13.30;;;6.72;;
39948;SDS011;29070;48.102;-1.652;2023-02-28T19:27:00;15.67;;;6.77;;
39948;SDS011;29070;48.102;-1.652;2023-02-28T19:32:01;11.87;;;6.40;;
39948;SDS011;29070;48.102;-1.652;2023-02-28T19:37:03;14.55;;;7.20;;
39948;SDS011;29070;48.102;-1.652;2023-02-28T19:42:03;14.40;;;8.10;;
39948;SDS011;29070;48.102;-1.652;2023-02-28T19:47:04;17.97;;;7.00;;
39948;SDS011;29070;48.102;-1.652;2023-02-28T19:52:04;15.00;;;8.00;;
39948;SDS011;29070;48.102;-1.652;2023-02-28T19:57:05;16.60;;;9.27;;
39948;SDS011;29070;48.102;-1.652;2023-02-28T20:02:09;12.43;;;7.10;;
39948;SDS011;29070;48.102;-1.652;2023-02-28T20:07:13;9.18;;;5.45;;
39948;SDS011;29070;48.102;-1.652;2023-02-28T20:12:14;10.40;;;4.55;;
39948;SDS011;29070;48.102;-1.652;2023-02-28T20:17:16;6.57;;;3.97;;
39948;SDS011;29070;48.102;-1.652;2023-02-28T20:22:17;8.82;;;4.85;;
39948;SDS011;29070;48.102;-1.652;2023-02-28T20:27:17;9.57;;;4.90;;
39948;SDS011;29070;48.102;-1.652;2023-02-28T20:32:18;7.97;;;4.20;;
39948;SDS011;29070;48.102;-1.652;2023-02-28T20:37:19;8.70;;;3.78;;
39948;SDS011;29070;48.102;-1.652;2023-02-28T20:42:19;6.82;;;4.47;;
39948;SDS011;29070;48.102;-1.652;2023-02-28T20:47:19;13.60;;;5.07;;
39948;SDS011;29070;48.102;-1.652;2023-02-28T20:52:20;9.23;;;4.97;;
39948;SDS011;29070;48.102;-1.652;2023-02-28T20:57:20;9.97;;;4.53;;
39948;SDS011;29070;48.102;-1.652;2023-02-28T21:02:20;9.10;;;4.70;;
39948;SDS011;29070;48.102;-1.652;2023-02-28T21:07:21;9.73;;;4.88;;
39948;SDS011;29070;48.102;-1.652;2023-02-28T21:12:21;9.00;;;4.90;;
39948;SDS011;29070;48.102;-1.652;2023-02-28T21:17:21;13.97;;;5.80;;
39948;SDS011;29070;48.102;-1.652;2023-02-28T21:22:22;13.07;;;6.10;;
39948;SDS011;29070;48.102;-1.652;2023-02-28T21:27:22;12.40;;;6.50;;
39948;SDS011;29070;48.102;-1.652;2023-02-28T21:32:23;12.90;;;6.88;;
39948;SDS011;29070;48.102;-1.652;2023-02-28T21:37:23;16.15;;;6.57;;
39948;SDS011;29070;48.102;-1.652;2023-02-28T21:42:24;12.70;;;6.38;;
39948;SDS011;29070;48.102;-1.652;2023-02-28T21:47:24;14.73;;;7.37;;
39948;SDS011;29070;48.102;-1.652;2023-02-28T21:52:24;15.97;;;8.33;;
39948;SDS011;29070;48.102;-1.652;2023-02-28T21:57:25;13.32;;;7.22;;
39948;SDS011;29070;48.102;-1.652;2023-02-28T22:02:26;19.50;;;9.15;;
39948;SDS011;29070;48.102;-1.652;2023-02-28T22:07:26;19.43;;;8.87;;
39948;SDS011;29070;48.102;-1.652;2023-02-28T22:12:28;17.60;;;8.73;;
39948;SDS011;29070;48.102;-1.652;2023-02-28T22:17:29;28.08;;;9.48;;
39948;SDS011;29070;48.102;-1.652;2023-02-28T22:22:29;19.60;;;9.60;;
39948;SDS011;29070;48.102;-1.652;2023-02-28T22:27:30;17.37;;;9.27;;
39948;SDS011;29070;48.102;-1.652;2023-02-28T22:32:30;19.70;;;9.57;;
39948;SDS011;29070;48.102;-1.652;2023-02-28T22:37:30;17.15;;;8.45;;
39948;SDS011;29070;48.102;-1.652;2023-02-28T22:42:32;18.10;;;8.88;;
39948;SDS011;29070;48.102;-1.652;2023-02-28T22:47:33;19.75;;;10.25;;
39948;SDS011;29070;48.102;-1.652;2023-02-28T22:52:33;22.08;;;10.13;;
39948;SDS011;29070;48.102;-1.652;2023-02-28T22:57:34;17.27;;;9.37;;
39948;SDS011;29070;48.102;-1.652;2023-02-28T23:02:35;18.40;;;9.40;;
39948;SDS011;29070;48.102;-1.652;2023-02-28T23:07:35;20.85;;;10.30;;
39948;SDS011;29070;48.102;-1.652;2023-02-28T23:12:36;23.75;;;10.32;;
39948;SDS011;29070;48.102;-1.652;2023-02-28T23:17:36;21.15;;;10.20;;
39948;SDS011;29070;48.102;-1.652;2023-02-28T23:22:36;20.77;;;10.27;;
39948;SDS011;29070;48.102;-1.652;2023-02-28T23:27:37;19.77;;;10.73;;
39948;SDS011;29070;48.102;-1.652;2023-02-28T23:32:38;19.27;;;10.38;;
39948;SDS011;29070;48.102;-1.652;2023-02-28T23:37:39;22.63;;;10.45;;
39948;SDS011;29070;48.102;-1.652;2023-02-28T23:42:39;18.97;;;10.47;;
39948;SDS011;29070;48.102;-1.652;2023-02-28T23:47:40;21.70;;;10.60;;
39948;SDS011;29070;48.102;-1.652;2023-02-28T23:52:40;20.27;;;10.50;;
39948;SDS011;29070;48.102;-1.652;2023-02-28T23:57:40;22.53;;;11.90;;
